sensor_id;sensor_type;location;lat;lon;timestamp;P1;durP1;ratioP1;P2;durP2;ratioP2
32734;SDS011;19112;51.076;3.706;2023-10-19T00:00:34;7.35;;;1.65;;
32734;SDS011;19112;51.076;3.706;2023-10-19T00:03:11;4.15;;;0.90;;
32734;SDS011;19112;51.076;3.706;2023-10-19T00:05:45;3.03;;;1.17;;
32734;SDS011;19112;51.076;3.706;2023-10-19T00:08:14;6.82;;;1.30;;
32734;SDS011;19112;51.076;3.706;2023-10-19T00:10:45;7.32;;;1.00;;
32734;SDS011;19112;51.076;3.706;2023-10-19T00:13:30;6.85;;;1.92;;
32734;SDS011;19112;51.076;3.706;2023-10-19T00:15:56;7.88;;;1.27;;
32734;SDS011;19112;51.076;3.706;2023-10-19T00:18:25;5.22;;;0.95;;
32734;SDS011;19112;51.076;3.706;2023-10-19T00:20:53;7.32;;;1.60;;
32734;SDS011;19112;51.076;3.706;2023-10-19T00:23:23;10.48;;;1.35;;
32734;SDS011;19112;51.076;3.706;2023-10-19T00:26:00;9.73;;;1.27;;
32734;SDS011;19112;51.076;3.706;2023-10-19T00:28:40;6.18;;;1.40;;
32734;SDS011;19112;51.076;3.706;2023-10-19T00:31:06;5.53;;;1.23;;
32734;SDS011;19112;51.076;3.706;2023-10-19T00:33:39;8.18;;;1.77;;
32734;SDS011;19112;51.076;3.706;2023-10-19T00:36:06;7.68;;;1.73;;
32734;SDS011;19112;51.076;3.706;2023-10-19T00:38:40;4.22;;;1.20;;
32734;SDS011;19112;51.076;3.706;2023-10-19T00:41:22;7.55;;;1.42;;
32734;SDS011;19112;51.076;3.706;2023-10-19T00:43:59;8.63;;;1.73;;
32734;SDS011;19112;51.076;3.706;2023-10-19T00:46:40;9.30;;;1.58;;
32734;SDS011;19112;51.076;3.706;2023-10-19T00:49:06;14.15;;;2.28;;
32734;SDS011;19112;51.076;3.706;2023-10-19T00:51:45;7.80;;;1.80;;
32734;SDS011;19112;51.076;3.706;2023-10-19T00:54:41;10.13;;;1.48;;
32734;SDS011;19112;51.076;3.706;2023-10-19T00:57:11;7.35;;;1.65;;
32734;SDS011;19112;51.076;3.706;2023-10-19T00:59:38;4.07;;;1.48;;
32734;SDS011;19112;51.076;3.706;2023-10-19T01:02:12;8.63;;;1.60;;
32734;SDS011;19112;51.076;3.706;2023-10-19T01:04:54;4.50;;;1.15;;
32734;SDS011;19112;51.076;3.706;2023-10-19T01:07:26;8.70;;;1.45;;
32734;SDS011;19112;51.076;3.706;2023-10-19T01:09:56;10.43;;;1.75;;
32734;SDS011;19112;51.076;3.706;2023-10-19T01:12:31;12.68;;;2.13;;
32734;SDS011;19112;51.076;3.706;2023-10-19T01:15:01;7.93;;;1.67;;
32734;SDS011;19112;51.076;3.706;2023-10-19T01:18:01;7.78;;;1.55;;
32734;SDS011;19112;51.076;3.706;2023-10-19T01:20:28;8.00;;;1.55;;
32734;SDS011;19112;51.076;3.706;2023-10-19T01:28:37;7.50;;;1.60;;
32734;SDS011;19112;51.076;3.706;2023-10-19T01:31:06;5.85;;;1.70;;
32734;SDS011;19112;51.076;3.706;2023-10-19T01:33:53;12.30;;;2.33;;
32734;SDS011;19112;51.076;3.706;2023-10-19T01:36:39;13.88;;;1.75;;
32734;SDS011;19112;51.076;3.706;2023-10-19T01:39:08;15.88;;;2.22;;
32734;SDS011;19112;51.076;3.706;2023-10-19T01:41:38;3.13;;;1.30;;
32734;SDS011;19112;51.076;3.706;2023-10-19T01:44:08;7.78;;;1.73;;
32734;SDS011;19112;51.076;3.706;2023-10-19T01:46:38;12.23;;;1.83;;
32734;SDS011;19112;51.076;3.706;2023-10-19T01:49:04;10.63;;;1.73;;
32734;SDS011;19112;51.076;3.706;2023-10-19T01:51:53;6.75;;;1.58;;
32734;SDS011;19112;51.076;3.706;2023-10-19T01:54:20;14.02;;;1.85;;
32734;SDS011;19112;51.076;3.706;2023-10-19T01:57:07;8.20;;;1.60;;
32734;SDS011;19112;51.076;3.706;2023-10-19T01:59:33;8.52;;;1.58;;
32734;SDS011;19112;51.076;3.706;2023-10-19T02:01:59;4.45;;;1.40;;
32734;SDS011;19112;51.076;3.706;2023-10-19T02:04:47;7.57;;;1.40;;
32734;SDS011;19112;51.076;3.706;2023-10-19T02:07:16;8.45;;;1.58;;
32734;SDS011;19112;51.076;3.706;2023-10-19T02:09:43;5.55;;;1.45;;
32734;SDS011;19112;51.076;3.706;2023-10-19T02:12:09;9.43;;;1.95;;
32734;SDS011;19112;51.076;3.706;2023-10-19T02:14:35;12.55;;;1.52;;
32734;SDS011;19112;51.076;3.706;2023-10-19T02:17:04;8.98;;;1.80;;
32734;SDS011;19112;51.076;3.706;2023-10-19T02:19:36;10.98;;;1.67;;
32734;SDS011;19112;51.076;3.706;2023-10-19T02:22:02;7.60;;;2.20;;
32734;SDS011;19112;51.076;3.706;2023-10-19T02:24:37;5.07;;;1.75;;
32734;SDS011;19112;51.076;3.706;2023-10-19T02:27:04;6.60;;;1.35;;
32734;SDS011;19112;51.076;3.706;2023-10-19T02:29:34;9.68;;;3.38;;
32734;SDS011;19112;51.076;3.706;2023-10-19T02:32:01;5.13;;;1.77;;
32734;SDS011;19112;51.076;3.706;2023-10-19T02:34:31;13.38;;;2.47;;
32734;SDS011;19112;51.076;3.706;2023-10-19T02:37:01;10.65;;;2.08;;
32734;SDS011;19112;51.076;3.706;2023-10-19T02:39:27;10.25;;;1.95;;
32734;SDS011;19112;51.076;3.706;2023-10-19T02:41:53;11.30;;;2.03;;
32734;SDS011;19112;51.076;3.706;2023-10-19T02:44:28;7.45;;;1.88;;
32734;SDS011;19112;51.076;3.706;2023-10-19T02:46:55;6.80;;;1.95;;
32734;SDS011;19112;51.076;3.706;2023-10-19T02:49:25;16.40;;;2.00;;
32734;SDS011;19112;51.076;3.706;2023-10-19T02:51:54;8.43;;;1.63;;
32734;SDS011;19112;51.076;3.706;2023-10-19T02:54:23;9.27;;;1.77;;
32734;SDS011;19112;51.076;3.706;2023-10-19T02:56:53;7.22;;;1.67;;
32734;SDS011;19112;51.076;3.706;2023-10-19T02:59:24;9.93;;;1.77;;
32734;SDS011;19112;51.076;3.706;2023-10-19T03:04:32;9.57;;;2.00;;
32734;SDS011;19112;51.076;3.706;2023-10-19T03:07:02;13.35;;;2.03;;
32734;SDS011;19112;51.076;3.706;2023-10-19T03:09:29;8.50;;;1.95;;
32734;SDS011;19112;51.076;3.706;2023-10-19T03:12:01;12.40;;;2.00;;
32734;SDS011;19112;51.076;3.706;2023-10-19T03:14:29;12.23;;;2.63;;
32734;SDS011;19112;51.076;3.706;2023-10-19T03:16:57;16.13;;;2.92;;
32734;SDS011;19112;51.076;3.706;2023-10-19T03:19:25;12.35;;;2.40;;
32734;SDS011;19112;51.076;3.706;2023-10-19T03:21:51;10.55;;;2.30;;
32734;SDS011;19112;51.076;3.706;2023-10-19T03:24:18;12.10;;;2.38;;
32734;SDS011;19112;51.076;3.706;2023-10-19T03:27:03;16.58;;;2.40;;
32734;SDS011;19112;51.076;3.706;2023-10-19T03:29:48;11.70;;;2.00;;
32734;SDS011;19112;51.076;3.706;2023-10-19T03:32:21;10.65;;;2.45;;
32734;SDS011;19112;51.076;3.706;2023-10-19T03:34:54;12.63;;;2.20;;
32734;SDS011;19112;51.076;3.706;2023-10-19T03:37:29;9.50;;;2.10;;
32734;SDS011;19112;51.076;3.706;2023-10-19T03:42:27;10.60;;;2.03;;
32734;SDS011;19112;51.076;3.706;2023-10-19T03:44:57;11.63;;;2.17;;
32734;SDS011;19112;51.076;3.706;2023-10-19T03:47:32;10.20;;;2.25;;
32734;SDS011;19112;51.076;3.706;2023-10-19T03:50:04;13.98;;;2.05;;
32734;SDS011;19112;51.076;3.706;2023-10-19T03:52:35;13.18;;;2.30;;
32734;SDS011;19112;51.076;3.706;2023-10-19T03:55:04;10.10;;;2.13;;
32734;SDS011;19112;51.076;3.706;2023-10-19T03:57:52;15.43;;;2.30;;
32734;SDS011;19112;51.076;3.706;2023-10-19T04:00:19;13.02;;;2.53;;
32734;SDS011;19112;51.076;3.706;2023-10-19T04:02:57;18.02;;;2.78;;
32734;SDS011;19112;51.076;3.706;2023-10-19T04:05:23;13.50;;;2.70;;
32734;SDS011;19112;51.076;3.706;2023-10-19T04:07:50;10.13;;;2.25;;
32734;SDS011;19112;51.076;3.706;2023-10-19T04:10:20;12.30;;;2.20;;
32734;SDS011;19112;51.076;3.706;2023-10-19T04:12:59;16.40;;;2.47;;
32734;SDS011;19112;51.076;3.706;2023-10-19T04:15:29;11.98;;;2.38;;
32734;SDS011;19112;51.076;3.706;2023-10-19T04:17:59;13.05;;;2.22;;
32734;SDS011;19112;51.076;3.706;2023-10-19T04:20:25;14.10;;;2.95;;
32734;SDS011;19112;51.076;3.706;2023-10-19T04:23:02;19.20;;;2.45;;
32734;SDS011;19112;51.076;3.706;2023-10-19T04:25:35;13.07;;;2.40;;
32734;SDS011;19112;51.076;3.706;2023-10-19T04:28:02;15.50;;;2.40;;
32734;SDS011;19112;51.076;3.706;2023-10-19T04:30:30;14.30;;;2.20;;
32734;SDS011;19112;51.076;3.706;2023-10-19T04:32:58;8.15;;;2.03;;
32734;SDS011;19112;51.076;3.706;2023-10-19T04:35:27;14.75;;;3.17;;
32734;SDS011;19112;51.076;3.706;2023-10-19T04:37:59;14.75;;;2.80;;
32734;SDS011;19112;51.076;3.706;2023-10-19T04:40:28;14.05;;;2.65;;
32734;SDS011;19112;51.076;3.706;2023-10-19T04:42:53;12.73;;;2.47;;
32734;SDS011;19112;51.076;3.706;2023-10-19T04:45:39;14.55;;;2.30;;
32734;SDS011;19112;51.076;3.706;2023-10-19T04:48:05;18.40;;;3.40;;
32734;SDS011;19112;51.076;3.706;2023-10-19T04:50:31;19.73;;;3.22;;
32734;SDS011;19112;51.076;3.706;2023-10-19T04:52:57;9.77;;;2.33;;
32734;SDS011;19112;51.076;3.706;2023-10-19T04:55:23;12.32;;;3.08;;
32734;SDS011;19112;51.076;3.706;2023-10-19T04:57:49;13.80;;;2.20;;
32734;SDS011;19112;51.076;3.706;2023-10-19T05:00:16;14.30;;;2.60;;
32734;SDS011;19112;51.076;3.706;2023-10-19T05:03:03;16.20;;;2.65;;
32734;SDS011;19112;51.076;3.706;2023-10-19T05:05:29;17.55;;;2.70;;
32734;SDS011;19112;51.076;3.706;2023-10-19T05:07:55;13.27;;;2.65;;
32734;SDS011;19112;51.076;3.706;2023-10-19T05:10:23;16.00;;;2.72;;
32734;SDS011;19112;51.076;3.706;2023-10-19T05:12:51;11.65;;;2.60;;
32734;SDS011;19112;51.076;3.706;2023-10-19T05:15:16;17.35;;;3.15;;
32734;SDS011;19112;51.076;3.706;2023-10-19T05:17:43;17.70;;;2.90;;
32734;SDS011;19112;51.076;3.706;2023-10-19T05:20:11;14.35;;;2.88;;
32734;SDS011;19112;51.076;3.706;2023-10-19T05:22:37;14.52;;;2.88;;
32734;SDS011;19112;51.076;3.706;2023-10-19T05:25:04;13.68;;;2.50;;
32734;SDS011;19112;51.076;3.706;2023-10-19T05:27:32;16.13;;;3.33;;
32734;SDS011;19112;51.076;3.706;2023-10-19T05:29:59;15.45;;;2.95;;
32734;SDS011;19112;51.076;3.706;2023-10-19T05:32:27;14.45;;;3.00;;
32734;SDS011;19112;51.076;3.706;2023-10-19T05:34:55;22.20;;;3.13;;
32734;SDS011;19112;51.076;3.706;2023-10-19T05:37:23;21.33;;;3.00;;
32734;SDS011;19112;51.076;3.706;2023-10-19T05:39:54;21.52;;;3.38;;
32734;SDS011;19112;51.076;3.706;2023-10-19T05:42:21;22.85;;;3.90;;
32734;SDS011;19112;51.076;3.706;2023-10-19T05:44:47;18.98;;;2.78;;
32734;SDS011;19112;51.076;3.706;2023-10-19T05:47:13;17.00;;;3.22;;
32734;SDS011;19112;51.076;3.706;2023-10-19T05:49:39;21.30;;;2.90;;
32734;SDS011;19112;51.076;3.706;2023-10-19T05:52:05;22.10;;;3.33;;
32734;SDS011;19112;51.076;3.706;2023-10-19T05:54:30;12.75;;;2.80;;
32734;SDS011;19112;51.076;3.706;2023-10-19T05:56:57;11.60;;;2.70;;
32734;SDS011;19112;51.076;3.706;2023-10-19T05:59:23;17.15;;;3.00;;
32734;SDS011;19112;51.076;3.706;2023-10-19T06:01:51;15.80;;;3.10;;
32734;SDS011;19112;51.076;3.706;2023-10-19T06:04:18;16.33;;;2.92;;
32734;SDS011;19112;51.076;3.706;2023-10-19T06:06:45;21.95;;;3.25;;
32734;SDS011;19112;51.076;3.706;2023-10-19T06:09:11;17.13;;;2.70;;
32734;SDS011;19112;51.076;3.706;2023-10-19T06:11:37;20.17;;;4.00;;
32734;SDS011;19112;51.076;3.706;2023-10-19T06:14:07;16.15;;;3.20;;
32734;SDS011;19112;51.076;3.706;2023-10-19T06:16:33;21.13;;;3.25;;
32734;SDS011;19112;51.076;3.706;2023-10-19T06:19:00;19.92;;;3.95;;
32734;SDS011;19112;51.076;3.706;2023-10-19T06:21:27;18.65;;;4.05;;
32734;SDS011;19112;51.076;3.706;2023-10-19T06:23:58;20.58;;;3.63;;
32734;SDS011;19112;51.076;3.706;2023-10-19T06:26:24;17.65;;;2.97;;
32734;SDS011;19112;51.076;3.706;2023-10-19T06:28:50;27.60;;;3.65;;
32734;SDS011;19112;51.076;3.706;2023-10-19T06:31:22;19.58;;;3.45;;
32734;SDS011;19112;51.076;3.706;2023-10-19T06:33:49;16.05;;;3.58;;
32734;SDS011;19112;51.076;3.706;2023-10-19T06:36:14;19.40;;;3.80;;
32734;SDS011;19112;51.076;3.706;2023-10-19T06:38:40;22.92;;;3.25;;
32734;SDS011;19112;51.076;3.706;2023-10-19T06:41:10;24.65;;;3.45;;
32734;SDS011;19112;51.076;3.706;2023-10-19T06:43:51;21.55;;;3.83;;
32734;SDS011;19112;51.076;3.706;2023-10-19T06:46:16;20.77;;;3.83;;
32734;SDS011;19112;51.076;3.706;2023-10-19T06:48:42;20.35;;;3.50;;
32734;SDS011;19112;51.076;3.706;2023-10-19T06:51:08;18.73;;;4.55;;
32734;SDS011;19112;51.076;3.706;2023-10-19T06:53:34;20.92;;;3.90;;
32734;SDS011;19112;51.076;3.706;2023-10-19T06:56:01;17.85;;;4.40;;
32734;SDS011;19112;51.076;3.706;2023-10-19T06:58:29;25.08;;;3.70;;
32734;SDS011;19112;51.076;3.706;2023-10-19T07:00:59;22.70;;;4.20;;
32734;SDS011;19112;51.076;3.706;2023-10-19T07:03:33;19.88;;;3.60;;
32734;SDS011;19112;51.076;3.706;2023-10-19T07:05:59;17.20;;;3.70;;
32734;SDS011;19112;51.076;3.706;2023-10-19T07:08:31;19.17;;;3.97;;
32734;SDS011;19112;51.076;3.706;2023-10-19T07:10:57;36.47;;;3.90;;
32734;SDS011;19112;51.076;3.706;2023-10-19T07:13:25;20.25;;;3.83;;
32734;SDS011;19112;51.076;3.706;2023-10-19T07:15:52;22.55;;;3.90;;
32734;SDS011;19112;51.076;3.706;2023-10-19T07:18:18;22.77;;;4.15;;
32734;SDS011;19112;51.076;3.706;2023-10-19T07:20:44;23.02;;;4.15;;
32734;SDS011;19112;51.076;3.706;2023-10-19T07:23:13;22.20;;;4.10;;
32734;SDS011;19112;51.076;3.706;2023-10-19T07:25:51;18.50;;;3.90;;
32734;SDS011;19112;51.076;3.706;2023-10-19T07:28:24;17.50;;;3.13;;
32734;SDS011;19112;51.076;3.706;2023-10-19T07:30:51;18.92;;;3.85;;
32734;SDS011;19112;51.076;3.706;2023-10-19T07:33:18;25.60;;;4.70;;
32734;SDS011;19112;51.076;3.706;2023-10-19T07:35:48;20.73;;;3.80;;
32734;SDS011;19112;51.076;3.706;2023-10-19T07:38:25;27.92;;;4.75;;
32734;SDS011;19112;51.076;3.706;2023-10-19T07:40:54;19.20;;;3.63;;
32734;SDS011;19112;51.076;3.706;2023-10-19T07:43:20;24.60;;;4.10;;
32734;SDS011;19112;51.076;3.706;2023-10-19T07:45:46;19.73;;;4.00;;
32734;SDS011;19112;51.076;3.706;2023-10-19T07:48:17;22.50;;;4.13;;
32734;SDS011;19112;51.076;3.706;2023-10-19T07:50:43;24.42;;;3.60;;
32734;SDS011;19112;51.076;3.706;2023-10-19T07:53:09;15.80;;;3.70;;
32734;SDS011;19112;51.076;3.706;2023-10-19T07:55:35;17.80;;;3.58;;
32734;SDS011;19112;51.076;3.706;2023-10-19T07:58:03;18.83;;;3.75;;
32734;SDS011;19112;51.076;3.706;2023-10-19T08:00:33;17.88;;;3.63;;
32734;SDS011;19112;51.076;3.706;2023-10-19T08:02:59;23.50;;;3.78;;
32734;SDS011;19112;51.076;3.706;2023-10-19T08:05:28;22.15;;;3.80;;
32734;SDS011;19112;51.076;3.706;2023-10-19T08:07:54;20.90;;;4.13;;
32734;SDS011;19112;51.076;3.706;2023-10-19T08:10:23;18.67;;;3.65;;
32734;SDS011;19112;51.076;3.706;2023-10-19T08:12:54;24.05;;;3.85;;
32734;SDS011;19112;51.076;3.706;2023-10-19T08:15:24;18.15;;;3.63;;
32734;SDS011;19112;51.076;3.706;2023-10-19T08:17:51;13.50;;;3.42;;
32734;SDS011;19112;51.076;3.706;2023-10-19T08:20:20;21.33;;;4.50;;
32734;SDS011;19112;51.076;3.706;2023-10-19T08:22:53;15.20;;;3.40;;
32734;SDS011;19112;51.076;3.706;2023-10-19T08:25:23;24.67;;;4.50;;
32734;SDS011;19112;51.076;3.706;2023-10-19T08:27:53;22.45;;;4.05;;
32734;SDS011;19112;51.076;3.706;2023-10-19T08:30:23;19.75;;;4.47;;
32734;SDS011;19112;51.076;3.706;2023-10-19T08:32:52;21.05;;;3.83;;
32734;SDS011;19112;51.076;3.706;2023-10-19T08:35:19;23.70;;;3.95;;
32734;SDS011;19112;51.076;3.706;2023-10-19T08:37:57;18.40;;;3.55;;
32734;SDS011;19112;51.076;3.706;2023-10-19T08:40:26;24.05;;;3.67;;
32734;SDS011;19112;51.076;3.706;2023-10-19T08:43:08;32.15;;;4.03;;
32734;SDS011;19112;51.076;3.706;2023-10-19T08:45:38;18.27;;;3.80;;
32734;SDS011;19112;51.076;3.706;2023-10-19T08:48:04;23.63;;;3.67;;
32734;SDS011;19112;51.076;3.706;2023-10-19T08:50:31;21.05;;;3.50;;
32734;SDS011;19112;51.076;3.706;2023-10-19T08:52:59;23.25;;;3.90;;
32734;SDS011;19112;51.076;3.706;2023-10-19T08:55:31;20.58;;;3.85;;
32734;SDS011;19112;51.076;3.706;2023-10-19T08:58:03;26.40;;;3.75;;
32734;SDS011;19112;51.076;3.706;2023-10-19T09:00:45;21.15;;;3.40;;
32734;SDS011;19112;51.076;3.706;2023-10-19T09:03:14;23.13;;;3.42;;
32734;SDS011;19112;51.076;3.706;2023-10-19T09:05:42;27.48;;;4.05;;
32734;SDS011;19112;51.076;3.706;2023-10-19T09:08:18;23.27;;;4.30;;
32734;SDS011;19112;51.076;3.706;2023-10-19T09:10:48;20.90;;;3.85;;
32734;SDS011;19112;51.076;3.706;2023-10-19T09:13:18;19.55;;;3.25;;
32734;SDS011;19112;51.076;3.706;2023-10-19T09:15:44;23.30;;;3.72;;
32734;SDS011;19112;51.076;3.706;2023-10-19T09:20:42;18.85;;;3.78;;
32734;SDS011;19112;51.076;3.706;2023-10-19T09:23:19;21.23;;;4.00;;
32734;SDS011;19112;51.076;3.706;2023-10-19T09:25:47;18.80;;;3.72;;
32734;SDS011;19112;51.076;3.706;2023-10-19T09:28:21;21.25;;;3.92;;
32734;SDS011;19112;51.076;3.706;2023-10-19T09:30:48;20.02;;;3.58;;
32734;SDS011;19112;51.076;3.706;2023-10-19T09:33:16;16.65;;;3.70;;
32734;SDS011;19112;51.076;3.706;2023-10-19T09:35:47;19.17;;;3.47;;
32734;SDS011;19112;51.076;3.706;2023-10-19T09:38:16;19.38;;;3.63;;
32734;SDS011;19112;51.076;3.706;2023-10-19T09:40:51;23.05;;;5.03;;
32734;SDS011;19112;51.076;3.706;2023-10-19T09:44:07;23.23;;;3.95;;
32734;SDS011;19112;51.076;3.706;2023-10-19T09:46:27;28.25;;;3.80;;
32734;SDS011;19112;51.076;3.706;2023-10-19T09:49:14;23.10;;;4.53;;
32734;SDS011;19112;51.076;3.706;2023-10-19T09:51:40;23.27;;;4.97;;
32734;SDS011;19112;51.076;3.706;2023-10-19T09:54:16;23.95;;;3.72;;
32734;SDS011;19112;51.076;3.706;2023-10-19T09:57:21;23.67;;;3.88;;
32734;SDS011;19112;51.076;3.706;2023-10-19T10:00:22;18.95;;;3.85;;
32734;SDS011;19112;51.076;3.706;2023-10-19T10:02:59;22.42;;;3.47;;
32734;SDS011;19112;51.076;3.706;2023-10-19T10:10:48;23.58;;;4.22;;
32734;SDS011;19112;51.076;3.706;2023-10-19T10:15:52;19.80;;;3.47;;
32734;SDS011;19112;51.076;3.706;2023-10-19T10:18:29;21.10;;;3.83;;
32734;SDS011;19112;51.076;3.706;2023-10-19T10:24:03;23.83;;;4.05;;
32734;SDS011;19112;51.076;3.706;2023-10-19T10:26:30;20.55;;;3.75;;
32734;SDS011;19112;51.076;3.706;2023-10-19T10:29:23;29.55;;;4.43;;
32734;SDS011;19112;51.076;3.706;2023-10-19T10:31:54;20.90;;;4.28;;
32734;SDS011;19112;51.076;3.706;2023-10-19T10:37:08;27.17;;;4.28;;
32734;SDS011;19112;51.076;3.706;2023-10-19T10:39:39;21.60;;;5.27;;
32734;SDS011;19112;51.076;3.706;2023-10-19T10:42:08;21.30;;;4.40;;
32734;SDS011;19112;51.076;3.706;2023-10-19T10:44:45;27.80;;;5.10;;
32734;SDS011;19112;51.076;3.706;2023-10-19T10:47:16;26.05;;;5.50;;
32734;SDS011;19112;51.076;3.706;2023-10-19T10:49:49;26.83;;;5.20;;
32734;SDS011;19112;51.076;3.706;2023-10-19T10:55:05;18.20;;;4.65;;
32734;SDS011;19112;51.076;3.706;2023-10-19T10:57:37;24.67;;;5.22;;
32734;SDS011;19112;51.076;3.706;2023-10-19T11:02:43;23.58;;;4.57;;
32734;SDS011;19112;51.076;3.706;2023-10-19T11:05:33;22.08;;;5.07;;
32734;SDS011;19112;51.076;3.706;2023-10-19T11:08:04;21.17;;;4.65;;
32734;SDS011;19112;51.076;3.706;2023-10-19T11:10:38;26.17;;;5.75;;
32734;SDS011;19112;51.076;3.706;2023-10-19T11:13:12;21.77;;;4.50;;
32734;SDS011;19112;51.076;3.706;2023-10-19T11:15:53;20.02;;;4.35;;
32734;SDS011;19112;51.076;3.706;2023-10-19T11:18:36;27.45;;;4.70;;
32734;SDS011;19112;51.076;3.706;2023-10-19T11:21:08;25.13;;;4.97;;
32734;SDS011;19112;51.076;3.706;2023-10-19T11:23:47;25.60;;;5.82;;
32734;SDS011;19112;51.076;3.706;2023-10-19T11:26:17;26.70;;;7.30;;
32734;SDS011;19112;51.076;3.706;2023-10-19T11:28:46;22.88;;;4.88;;
32734;SDS011;19112;51.076;3.706;2023-10-19T11:31:30;21.63;;;5.00;;
32734;SDS011;19112;51.076;3.706;2023-10-19T11:34:08;23.35;;;5.65;;
32734;SDS011;19112;51.076;3.706;2023-10-19T11:36:35;21.77;;;5.10;;
32734;SDS011;19112;51.076;3.706;2023-10-19T11:39:01;23.80;;;5.38;;
32734;SDS011;19112;51.076;3.706;2023-10-19T11:41:29;21.88;;;4.97;;
32734;SDS011;19112;51.076;3.706;2023-10-19T11:43:55;22.88;;;5.47;;
32734;SDS011;19112;51.076;3.706;2023-10-19T11:46:22;24.27;;;5.32;;
32734;SDS011;19112;51.076;3.706;2023-10-19T11:48:50;25.00;;;5.13;;
32734;SDS011;19112;51.076;3.706;2023-10-19T11:51:16;27.85;;;5.32;;
32734;SDS011;19112;51.076;3.706;2023-10-19T11:53:42;26.02;;;5.60;;
32734;SDS011;19112;51.076;3.706;2023-10-19T11:56:08;25.13;;;6.10;;
32734;SDS011;19112;51.076;3.706;2023-10-19T11:58:41;21.15;;;5.38;;
32734;SDS011;19112;51.076;3.706;2023-10-19T12:01:08;23.02;;;5.25;;
32734;SDS011;19112;51.076;3.706;2023-10-19T12:03:42;23.52;;;5.35;;
32734;SDS011;19112;51.076;3.706;2023-10-19T12:06:10;23.20;;;5.50;;
32734;SDS011;19112;51.076;3.706;2023-10-19T12:08:38;18.48;;;5.20;;
32734;SDS011;19112;51.076;3.706;2023-10-19T12:11:06;21.90;;;5.57;;
32734;SDS011;19112;51.076;3.706;2023-10-19T12:13:44;18.30;;;4.80;;
32734;SDS011;19112;51.076;3.706;2023-10-19T12:16:12;22.35;;;5.60;;
32734;SDS011;19112;51.076;3.706;2023-10-19T12:18:41;23.00;;;4.95;;
32734;SDS011;19112;51.076;3.706;2023-10-19T12:21:24;16.63;;;4.57;;
32734;SDS011;19112;51.076;3.706;2023-10-19T12:26:24;18.77;;;4.80;;
32734;SDS011;19112;51.076;3.706;2023-10-19T12:28:50;16.50;;;4.07;;
32734;SDS011;19112;51.076;3.706;2023-10-19T12:31:17;14.98;;;4.00;;
32734;SDS011;19112;51.076;3.706;2023-10-19T12:33:48;17.30;;;3.85;;
32734;SDS011;19112;51.076;3.706;2023-10-19T12:36:17;16.70;;;3.38;;
32734;SDS011;19112;51.076;3.706;2023-10-19T12:38:45;14.45;;;3.05;;
32734;SDS011;19112;51.076;3.706;2023-10-19T12:41:14;14.73;;;3.15;;
32734;SDS011;19112;51.076;3.706;2023-10-19T12:43:40;13.30;;;3.00;;
32734;SDS011;19112;51.076;3.706;2023-10-19T12:46:06;15.90;;;3.20;;
32734;SDS011;19112;51.076;3.706;2023-10-19T12:48:58;15.48;;;3.33;;
32734;SDS011;19112;51.076;3.706;2023-10-19T12:51:27;11.60;;;3.00;;
32734;SDS011;19112;51.076;3.706;2023-10-19T12:53:53;13.60;;;3.17;;
32734;SDS011;19112;51.076;3.706;2023-10-19T12:56:21;11.60;;;2.78;;
32734;SDS011;19112;51.076;3.706;2023-10-19T12:59:08;11.32;;;2.72;;
32734;SDS011;19112;51.076;3.706;2023-10-19T13:01:34;6.47;;;2.50;;
32734;SDS011;19112;51.076;3.706;2023-10-19T13:04:01;13.73;;;3.30;;
32734;SDS011;19112;51.076;3.706;2023-10-19T13:06:39;13.73;;;3.00;;
32734;SDS011;19112;51.076;3.706;2023-10-19T13:09:05;5.25;;;2.17;;
32734;SDS011;19112;51.076;3.706;2023-10-19T13:11:34;13.48;;;2.50;;
32734;SDS011;19112;51.076;3.706;2023-10-19T13:14:03;10.45;;;2.47;;
32734;SDS011;19112;51.076;3.706;2023-10-19T13:16:31;10.68;;;2.72;;
32734;SDS011;19112;51.076;3.706;2023-10-19T13:18:57;12.98;;;2.47;;
32734;SDS011;19112;51.076;3.706;2023-10-19T13:21:23;10.65;;;2.58;;
32734;SDS011;19112;51.076;3.706;2023-10-19T13:23:53;8.00;;;2.05;;
32734;SDS011;19112;51.076;3.706;2023-10-19T13:26:19;11.68;;;2.35;;
32734;SDS011;19112;51.076;3.706;2023-10-19T13:28:45;11.85;;;2.28;;
32734;SDS011;19112;51.076;3.706;2023-10-19T13:31:18;9.70;;;2.55;;
32734;SDS011;19112;51.076;3.706;2023-10-19T13:34:04;6.95;;;1.98;;
32734;SDS011;19112;51.076;3.706;2023-10-19T13:36:35;8.20;;;2.40;;
32734;SDS011;19112;51.076;3.706;2023-10-19T13:39:03;8.00;;;2.40;;
32734;SDS011;19112;51.076;3.706;2023-10-19T13:41:29;12.82;;;2.35;;
32734;SDS011;19112;51.076;3.706;2023-10-19T13:43:57;6.32;;;2.05;;
32734;SDS011;19112;51.076;3.706;2023-10-19T13:46:23;7.40;;;2.00;;
32734;SDS011;19112;51.076;3.706;2023-10-19T13:48:50;10.70;;;2.72;;
32734;SDS011;19112;51.076;3.706;2023-10-19T13:51:16;13.30;;;2.22;;
32734;SDS011;19112;51.076;3.706;2023-10-19T13:53:47;9.05;;;2.22;;
32734;SDS011;19112;51.076;3.706;2023-10-19T13:56:15;8.38;;;2.38;;
32734;SDS011;19112;51.076;3.706;2023-10-19T13:58:44;12.07;;;2.42;;
32734;SDS011;19112;51.076;3.706;2023-10-19T14:01:12;8.48;;;2.05;;
32734;SDS011;19112;51.076;3.706;2023-10-19T14:03:41;7.15;;;2.40;;
32734;SDS011;19112;51.076;3.706;2023-10-19T14:06:13;7.45;;;2.28;;
32734;SDS011;19112;51.076;3.706;2023-10-19T14:08:40;9.93;;;2.22;;
32734;SDS011;19112;51.076;3.706;2023-10-19T14:11:06;7.72;;;2.13;;
32734;SDS011;19112;51.076;3.706;2023-10-19T14:13:33;7.35;;;2.00;;
32734;SDS011;19112;51.076;3.706;2023-10-19T14:16:06;6.65;;;2.45;;
32734;SDS011;19112;51.076;3.706;2023-10-19T14:18:32;7.10;;;2.40;;
32734;SDS011;19112;51.076;3.706;2023-10-19T14:20:58;6.50;;;2.05;;
32734;SDS011;19112;51.076;3.706;2023-10-19T14:23:25;7.75;;;2.42;;
32734;SDS011;19112;51.076;3.706;2023-10-19T14:25:52;6.57;;;1.98;;
32734;SDS011;19112;51.076;3.706;2023-10-19T14:28:18;9.20;;;2.13;;
32734;SDS011;19112;51.076;3.706;2023-10-19T14:30:44;9.82;;;2.58;;
32734;SDS011;19112;51.076;3.706;2023-10-19T14:33:11;12.48;;;3.05;;
32734;SDS011;19112;51.076;3.706;2023-10-19T14:35:37;9.60;;;2.25;;
32734;SDS011;19112;51.076;3.706;2023-10-19T14:38:09;14.35;;;2.45;;
32734;SDS011;19112;51.076;3.706;2023-10-19T14:40:38;9.25;;;2.58;;
32734;SDS011;19112;51.076;3.706;2023-10-19T14:43:09;10.30;;;2.83;;
32734;SDS011;19112;51.076;3.706;2023-10-19T14:45:39;10.50;;;2.38;;
32734;SDS011;19112;51.076;3.706;2023-10-19T14:48:12;10.05;;;2.47;;
32734;SDS011;19112;51.076;3.706;2023-10-19T14:50:39;8.90;;;2.40;;
32734;SDS011;19112;51.076;3.706;2023-10-19T14:53:10;10.88;;;2.35;;
32734;SDS011;19112;51.076;3.706;2023-10-19T14:55:37;8.88;;;2.47;;
32734;SDS011;19112;51.076;3.706;2023-10-19T14:58:04;9.05;;;2.40;;
32734;SDS011;19112;51.076;3.706;2023-10-19T15:00:32;10.63;;;2.50;;
32734;SDS011;19112;51.076;3.706;2023-10-19T15:03:07;9.30;;;2.20;;
32734;SDS011;19112;51.076;3.706;2023-10-19T15:05:33;10.40;;;2.47;;
32734;SDS011;19112;51.076;3.706;2023-10-19T15:08:02;9.23;;;2.83;;
32734;SDS011;19112;51.076;3.706;2023-10-19T15:10:33;7.85;;;2.60;;
32734;SDS011;19112;51.076;3.706;2023-10-19T15:13:01;7.95;;;2.35;;
32734;SDS011;19112;51.076;3.706;2023-10-19T15:15:28;7.93;;;2.75;;
32734;SDS011;19112;51.076;3.706;2023-10-19T15:17:54;12.20;;;2.33;;
32734;SDS011;19112;51.076;3.706;2023-10-19T15:20:24;12.68;;;2.60;;
32734;SDS011;19112;51.076;3.706;2023-10-19T15:22:57;10.57;;;2.78;;
32734;SDS011;19112;51.076;3.706;2023-10-19T15:25:23;11.43;;;3.70;;
32734;SDS011;19112;51.076;3.706;2023-10-19T15:27:50;8.00;;;3.05;;
32734;SDS011;19112;51.076;3.706;2023-10-19T15:30:17;10.88;;;3.20;;
32734;SDS011;19112;51.076;3.706;2023-10-19T15:32:46;9.88;;;3.90;;